Volente, Texas
Current Conditions -  °F | °C
As of 9:55 AM on Sunday 21 Dec 2014 (Local Time) from KRYW Reporting Station
Overcast Overcast  
Wind Chill: 10°   Ceiling: 900
Heat Index: 10°   Visibility: 10mi
Dew Point:   Wind: 3mph
Humidity: 86%   Direction: 160°SSE
Pressure: 30.1"   Gusts: NA
Location:  30.558°N, 97.9247°W
Report Text: KRYW 211555Z AUTO 16003KT 10SM BKN009 OVC014 10/08 A3010 RMK AO2 T01000078
Loading
Personal Weather Stations






























Interactive Weather Map New forecast layout! Learn more

10-Day Weather Forecast

Advertisements
Track Severe Weather on mobile